sensor_id;sensor_type;location;lat;lon;timestamp;P1;durP1;ratioP1;P2;durP2;ratioP2
13171;SDS011;6651;53.200;10.432;2023-05-15T00:01:29;8.32;;;5.55;;
13171;SDS011;6651;53.200;10.432;2023-05-15T00:03:55;6.60;;;4.93;;
13171;SDS011;6651;53.200;10.432;2023-05-15T00:06:21;7.18;;;5.18;;
13171;SDS011;6651;53.200;10.432;2023-05-15T00:08:47;7.75;;;5.45;;
13171;SDS011;6651;53.200;10.432;2023-05-15T00:11:13;6.32;;;4.95;;
13171;SDS011;6651;53.200;10.432;2023-05-15T00:13:39;7.10;;;5.43;;
13171;SDS011;6651;53.200;10.432;2023-05-15T00:16:06;10.15;;;5.53;;
13171;SDS011;6651;53.200;10.432;2023-05-15T00:18:33;7.25;;;4.97;;
13171;SDS011;6651;53.200;10.432;2023-05-15T00:20:59;8.55;;;5.53;;
13171;SDS011;6651;53.200;10.432;2023-05-15T00:23:25;7.85;;;5.40;;
13171;SDS011;6651;53.200;10.432;2023-05-15T00:25:51;7.57;;;5.32;;
13171;SDS011;6651;53.200;10.432;2023-05-15T00:28:17;6.60;;;5.07;;
13171;SDS011;6651;53.200;10.432;2023-05-15T00:30:43;6.90;;;5.18;;
13171;SDS011;6651;53.200;10.432;2023-05-15T00:33:09;7.75;;;5.93;;
13171;SDS011;6651;53.200;10.432;2023-05-15T00:35:35;8.85;;;5.60;;
13171;SDS011;6651;53.200;10.432;2023-05-15T00:38:01;8.50;;;5.20;;
13171;SDS011;6651;53.200;10.432;2023-05-15T00:40:27;8.02;;;5.35;;
13171;SDS011;6651;53.200;10.432;2023-05-15T00:42:53;6.75;;;5.20;;
13171;SDS011;6651;53.200;10.432;2023-05-15T00:45:20;7.85;;;5.53;;
13171;SDS011;6651;53.200;10.432;2023-05-15T00:47:46;6.85;;;5.30;;
13171;SDS011;6651;53.200;10.432;2023-05-15T00:50:13;6.50;;;5.35;;
13171;SDS011;6651;53.200;10.432;2023-05-15T00:52:39;6.68;;;4.93;;
13171;SDS011;6651;53.200;10.432;2023-05-15T00:55:05;6.00;;;5.00;;
13171;SDS011;6651;53.200;10.432;2023-05-15T00:57:31;8.25;;;5.95;;
13171;SDS011;6651;53.200;10.432;2023-05-15T00:59:58;5.63;;;4.68;;
13171;SDS011;6651;53.200;10.432;2023-05-15T01:02:25;7.38;;;5.32;;
13171;SDS011;6651;53.200;10.432;2023-05-15T01:04:51;7.75;;;5.50;;
13171;SDS011;6651;53.200;10.432;2023-05-15T01:07:17;5.70;;;5.10;;
13171;SDS011;6651;53.200;10.432;2023-05-15T01:09:43;6.50;;;5.00;;
13171;SDS011;6651;53.200;10.432;2023-05-15T01:12:10;6.72;;;5.13;;
13171;SDS011;6651;53.200;10.432;2023-05-15T01:14:40;8.73;;;5.53;;
13171;SDS011;6651;53.200;10.432;2023-05-15T01:17:06;6.82;;;5.30;;
13171;SDS011;6651;53.200;10.432;2023-05-15T01:19:33;5.93;;;4.85;;
13171;SDS011;6651;53.200;10.432;2023-05-15T01:27:10;6.72;;;5.18;;
13171;SDS011;6651;53.200;10.432;2023-05-15T01:32:29;6.28;;;5.32;;
13171;SDS011;6651;53.200;10.432;2023-05-15T01:37:35;6.85;;;5.32;;
13171;SDS011;6651;53.200;10.432;2023-05-15T01:40:05;6.45;;;5.20;;
13171;SDS011;6651;53.200;10.432;2023-05-15T01:42:33;7.80;;;5.70;;
13171;SDS011;6651;53.200;10.432;2023-05-15T01:45:03;8.15;;;5.55;;
13171;SDS011;6651;53.200;10.432;2023-05-15T01:47:32;7.60;;;5.40;;
13171;SDS011;6651;53.200;10.432;2023-05-15T01:50:00;6.93;;;5.60;;
13171;SDS011;6651;53.200;10.432;2023-05-15T01:52:34;6.80;;;6.10;;
13171;SDS011;6651;53.200;10.432;2023-05-15T01:55:00;7.57;;;5.97;;
13171;SDS011;6651;53.200;10.432;2023-05-15T01:57:27;6.88;;;5.53;;
13171;SDS011;6651;53.200;10.432;2023-05-15T01:59:55;6.95;;;6.00;;
13171;SDS011;6651;53.200;10.432;2023-05-15T02:02:22;5.70;;;5.05;;
13171;SDS011;6651;53.200;10.432;2023-05-15T02:04:48;7.18;;;5.97;;
13171;SDS011;6651;53.200;10.432;2023-05-15T02:07:15;8.18;;;6.22;;
13171;SDS011;6651;53.200;10.432;2023-05-15T02:09:42;8.93;;;6.47;;
13171;SDS011;6651;53.200;10.432;2023-05-15T02:12:08;8.20;;;6.72;;
13171;SDS011;6651;53.200;10.432;2023-05-15T02:14:36;6.57;;;5.88;;
13171;SDS011;6651;53.200;10.432;2023-05-15T02:17:02;7.20;;;5.78;;
13171;SDS011;6651;53.200;10.432;2023-05-15T02:19:28;6.68;;;5.95;;
13171;SDS011;6651;53.200;10.432;2023-05-15T02:21:54;7.43;;;5.80;;
13171;SDS011;6651;53.200;10.432;2023-05-15T02:24:20;7.57;;;6.03;;
13171;SDS011;6651;53.200;10.432;2023-05-15T02:26:57;7.90;;;5.95;;
13171;SDS011;6651;53.200;10.432;2023-05-15T02:34:37;7.55;;;5.68;;
13171;SDS011;6651;53.200;10.432;2023-05-15T02:37:04;6.90;;;5.95;;
13171;SDS011;6651;53.200;10.432;2023-05-15T02:39:31;8.15;;;6.30;;
13171;SDS011;6651;53.200;10.432;2023-05-15T02:41:58;8.02;;;6.05;;
13171;SDS011;6651;53.200;10.432;2023-05-15T02:44:24;6.18;;;5.50;;
13171;SDS011;6651;53.200;10.432;2023-05-15T02:46:51;6.93;;;6.07;;
13171;SDS011;6651;53.200;10.432;2023-05-15T02:49:17;6.78;;;6.18;;
13171;SDS011;6651;53.200;10.432;2023-05-15T02:51:44;7.32;;;5.97;;
13171;SDS011;6651;53.200;10.432;2023-05-15T02:54:10;6.28;;;5.65;;
13171;SDS011;6651;53.200;10.432;2023-05-15T02:56:36;6.10;;;5.20;;
13171;SDS011;6651;53.200;10.432;2023-05-15T02:59:02;7.93;;;6.13;;
13171;SDS011;6651;53.200;10.432;2023-05-15T03:01:28;6.93;;;5.93;;
13171;SDS011;6651;53.200;10.432;2023-05-15T03:03:54;7.43;;;6.45;;
13171;SDS011;6651;53.200;10.432;2023-05-15T03:06:20;8.98;;;6.25;;
13171;SDS011;6651;53.200;10.432;2023-05-15T03:08:46;6.28;;;5.68;;
13171;SDS011;6651;53.200;10.432;2023-05-15T03:11:12;9.10;;;6.28;;
13171;SDS011;6651;53.200;10.432;2023-05-15T03:13:38;7.90;;;5.82;;
13171;SDS011;6651;53.200;10.432;2023-05-15T03:16:04;7.18;;;6.15;;
13171;SDS011;6651;53.200;10.432;2023-05-15T03:18:30;6.43;;;5.82;;
13171;SDS011;6651;53.200;10.432;2023-05-15T03:20:56;7.45;;;6.20;;
13171;SDS011;6651;53.200;10.432;2023-05-15T03:23:22;8.63;;;6.05;;
13171;SDS011;6651;53.200;10.432;2023-05-15T03:25:48;7.38;;;5.72;;
13171;SDS011;6651;53.200;10.432;2023-05-15T03:28:14;6.30;;;5.70;;
13171;SDS011;6651;53.200;10.432;2023-05-15T03:30:43;7.22;;;5.93;;
13171;SDS011;6651;53.200;10.432;2023-05-15T03:33:10;6.70;;;6.00;;
13171;SDS011;6651;53.200;10.432;2023-05-15T03:35:35;9.27;;;6.50;;
13171;SDS011;6651;53.200;10.432;2023-05-15T03:38:02;7.30;;;6.35;;
13171;SDS011;6651;53.200;10.432;2023-05-15T03:40:28;6.93;;;6.13;;
13171;SDS011;6651;53.200;10.432;2023-05-15T03:42:54;6.65;;;5.70;;
13171;SDS011;6651;53.200;10.432;2023-05-15T03:45:20;9.02;;;6.60;;
13171;SDS011;6651;53.200;10.432;2023-05-15T03:47:46;7.53;;;6.25;;
13171;SDS011;6651;53.200;10.432;2023-05-15T03:50:12;8.75;;;6.57;;
13171;SDS011;6651;53.200;10.432;2023-05-15T03:52:38;9.30;;;7.25;;
13171;SDS011;6651;53.200;10.432;2023-05-15T03:55:04;9.32;;;7.13;;
13171;SDS011;6651;53.200;10.432;2023-05-15T03:57:31;7.50;;;6.47;;
13171;SDS011;6651;53.200;10.432;2023-05-15T03:59:57;7.68;;;6.40;;
13171;SDS011;6651;53.200;10.432;2023-05-15T04:02:23;8.38;;;6.90;;
13171;SDS011;6651;53.200;10.432;2023-05-15T04:04:49;8.85;;;6.75;;
13171;SDS011;6651;53.200;10.432;2023-05-15T04:07:16;8.43;;;6.88;;
13171;SDS011;6651;53.200;10.432;2023-05-15T04:09:42;7.72;;;6.70;;
13171;SDS011;6651;53.200;10.432;2023-05-15T04:12:08;7.32;;;6.35;;
13171;SDS011;6651;53.200;10.432;2023-05-15T04:14:34;7.43;;;6.65;;
13171;SDS011;6651;53.200;10.432;2023-05-15T04:17:00;7.60;;;6.05;;
13171;SDS011;6651;53.200;10.432;2023-05-15T04:19:26;7.03;;;6.00;;
13171;SDS011;6651;53.200;10.432;2023-05-15T04:21:52;7.60;;;6.80;;
13171;SDS011;6651;53.200;10.432;2023-05-15T04:24:19;7.10;;;6.40;;
13171;SDS011;6651;53.200;10.432;2023-05-15T04:26:45;8.52;;;6.00;;
13171;SDS011;6651;53.200;10.432;2023-05-15T04:29:11;10.75;;;6.40;;
13171;SDS011;6651;53.200;10.432;2023-05-15T04:31:37;7.93;;;6.78;;
13171;SDS011;6651;53.200;10.432;2023-05-15T04:34:03;8.85;;;7.47;;
13171;SDS011;6651;53.200;10.432;2023-05-15T04:36:30;6.97;;;6.20;;
13171;SDS011;6651;53.200;10.432;2023-05-15T04:38:56;8.10;;;6.85;;
13171;SDS011;6651;53.200;10.432;2023-05-15T04:41:22;8.13;;;6.80;;
13171;SDS011;6651;53.200;10.432;2023-05-15T04:43:48;7.68;;;6.97;;
13171;SDS011;6651;53.200;10.432;2023-05-15T04:46:14;8.05;;;7.22;;
13171;SDS011;6651;53.200;10.432;2023-05-15T04:48:40;7.75;;;6.95;;
13171;SDS011;6651;53.200;10.432;2023-05-15T04:51:06;7.90;;;7.10;;
13171;SDS011;6651;53.200;10.432;2023-05-15T04:53:33;9.00;;;8.10;;
13171;SDS011;6651;53.200;10.432;2023-05-15T04:55:59;8.82;;;7.68;;
13171;SDS011;6651;53.200;10.432;2023-05-15T04:58:25;8.75;;;7.85;;
13171;SDS011;6651;53.200;10.432;2023-05-15T05:00:51;8.85;;;7.78;;
13171;SDS011;6651;53.200;10.432;2023-05-15T05:03:17;9.10;;;7.63;;
13171;SDS011;6651;53.200;10.432;2023-05-15T05:05:43;9.07;;;7.80;;
13171;SDS011;6651;53.200;10.432;2023-05-15T05:08:09;9.43;;;7.50;;
13171;SDS011;6651;53.200;10.432;2023-05-15T05:10:35;8.95;;;7.90;;
13171;SDS011;6651;53.200;10.432;2023-05-15T05:13:01;8.80;;;7.90;;
13171;SDS011;6651;53.200;10.432;2023-05-15T05:15:27;8.50;;;7.70;;
13171;SDS011;6651;53.200;10.432;2023-05-15T05:17:53;11.00;;;8.98;;
13171;SDS011;6651;53.200;10.432;2023-05-15T05:20:19;9.43;;;8.50;;
13171;SDS011;6651;53.200;10.432;2023-05-15T05:22:45;9.05;;;8.10;;
13171;SDS011;6651;53.200;10.432;2023-05-15T05:25:11;9.70;;;8.25;;
13171;SDS011;6651;53.200;10.432;2023-05-15T05:27:37;9.30;;;7.90;;
13171;SDS011;6651;53.200;10.432;2023-05-15T05:30:04;9.70;;;8.57;;
13171;SDS011;6651;53.200;10.432;2023-05-15T05:32:30;9.43;;;8.45;;
13171;SDS011;6651;53.200;10.432;2023-05-15T05:34:56;11.55;;;8.55;;
13171;SDS011;6651;53.200;10.432;2023-05-15T05:37:22;10.98;;;8.68;;
13171;SDS011;6651;53.200;10.432;2023-05-15T05:39:48;9.27;;;7.70;;
13171;SDS011;6651;53.200;10.432;2023-05-15T05:42:14;8.63;;;7.72;;
13171;SDS011;6651;53.200;10.432;2023-05-15T05:44:40;8.95;;;8.05;;
13171;SDS011;6651;53.200;10.432;2023-05-15T05:47:06;8.68;;;7.60;;
13171;SDS011;6651;53.200;10.432;2023-05-15T05:49:32;8.65;;;7.85;;
13171;SDS011;6651;53.200;10.432;2023-05-15T05:52:03;8.23;;;7.38;;
13171;SDS011;6651;53.200;10.432;2023-05-15T05:54:30;9.68;;;8.60;;
13171;SDS011;6651;53.200;10.432;2023-05-15T05:56:56;9.18;;;7.80;;
13171;SDS011;6651;53.200;10.432;2023-05-15T05:59:22;9.23;;;8.32;;
13171;SDS011;6651;53.200;10.432;2023-05-15T06:01:48;10.95;;;8.00;;
13171;SDS011;6651;53.200;10.432;2023-05-15T06:04:14;10.20;;;8.18;;
13171;SDS011;6651;53.200;10.432;2023-05-15T06:06:40;8.68;;;7.75;;
13171;SDS011;6651;53.200;10.432;2023-05-15T06:09:06;9.30;;;8.07;;
13171;SDS011;6651;53.200;10.432;2023-05-15T06:11:33;8.65;;;7.57;;
13171;SDS011;6651;53.200;10.432;2023-05-15T06:13:59;10.20;;;7.68;;
13171;SDS011;6651;53.200;10.432;2023-05-15T06:16:25;10.70;;;7.32;;
13171;SDS011;6651;53.200;10.432;2023-05-15T06:18:51;10.32;;;7.55;;
13171;SDS011;6651;53.200;10.432;2023-05-15T06:21:17;8.23;;;7.20;;
13171;SDS011;6651;53.200;10.432;2023-05-15T06:23:43;8.10;;;7.25;;
13171;SDS011;6651;53.200;10.432;2023-05-15T06:26:09;7.93;;;6.93;;
13171;SDS011;6651;53.200;10.432;2023-05-15T06:28:35;8.98;;;7.47;;
13171;SDS011;6651;53.200;10.432;2023-05-15T06:31:01;9.45;;;7.22;;
13171;SDS011;6651;53.200;10.432;2023-05-15T06:33:27;8.35;;;7.20;;
13171;SDS011;6651;53.200;10.432;2023-05-15T06:35:54;8.93;;;6.57;;
13171;SDS011;6651;53.200;10.432;2023-05-15T06:38:20;7.70;;;6.50;;
13171;SDS011;6651;53.200;10.432;2023-05-15T06:40:46;8.70;;;6.72;;
13171;SDS011;6651;53.200;10.432;2023-05-15T06:43:12;7.13;;;6.32;;
13171;SDS011;6651;53.200;10.432;2023-05-15T06:45:38;7.47;;;5.95;;
13171;SDS011;6651;53.200;10.432;2023-05-15T06:48:04;6.43;;;5.60;;
13171;SDS011;6651;53.200;10.432;2023-05-15T06:50:30;7.85;;;6.10;;
13171;SDS011;6651;53.200;10.432;2023-05-15T06:52:56;7.53;;;6.00;;
13171;SDS011;6651;53.200;10.432;2023-05-15T06:55:23;8.45;;;5.85;;
13171;SDS011;6651;53.200;10.432;2023-05-15T06:57:49;7.82;;;5.90;;
13171;SDS011;6651;53.200;10.432;2023-05-15T07:00:15;8.18;;;5.60;;
13171;SDS011;6651;53.200;10.432;2023-05-15T07:02:41;7.45;;;4.90;;
13171;SDS011;6651;53.200;10.432;2023-05-15T07:05:07;6.88;;;5.55;;
13171;SDS011;6651;53.200;10.432;2023-05-15T07:07:35;7.85;;;5.18;;
13171;SDS011;6651;53.200;10.432;2023-05-15T07:10:01;7.10;;;5.28;;
13171;SDS011;6651;53.200;10.432;2023-05-15T07:12:27;5.97;;;4.82;;
13171;SDS011;6651;53.200;10.432;2023-05-15T07:14:53;5.93;;;4.78;;
13171;SDS011;6651;53.200;10.432;2023-05-15T07:17:19;7.85;;;4.88;;
13171;SDS011;6651;53.200;10.432;2023-05-15T07:19:45;7.38;;;5.00;;
13171;SDS011;6651;53.200;10.432;2023-05-15T07:22:11;4.97;;;4.30;;
13171;SDS011;6651;53.200;10.432;2023-05-15T07:24:37;4.60;;;4.10;;
13171;SDS011;6651;53.200;10.432;2023-05-15T07:27:03;5.18;;;3.90;;
13171;SDS011;6651;53.200;10.432;2023-05-15T07:29:30;5.47;;;3.92;;
13171;SDS011;6651;53.200;10.432;2023-05-15T07:31:56;5.95;;;4.10;;
13171;SDS011;6651;53.200;10.432;2023-05-15T07:34:22;6.22;;;4.10;;
13171;SDS011;6651;53.200;10.432;2023-05-15T07:36:48;4.93;;;3.85;;
13171;SDS011;6651;53.200;10.432;2023-05-15T07:39:14;5.85;;;3.90;;
13171;SDS011;6651;53.200;10.432;2023-05-15T07:41:40;4.45;;;3.70;;
13171;SDS011;6651;53.200;10.432;2023-05-15T07:44:06;6.53;;;4.05;;
13171;SDS011;6651;53.200;10.432;2023-05-15T07:46:32;6.43;;;4.00;;
13171;SDS011;6651;53.200;10.432;2023-05-15T07:48:58;5.90;;;3.90;;
13171;SDS011;6651;53.200;10.432;2023-05-15T07:51:24;6.55;;;3.80;;
13171;SDS011;6651;53.200;10.432;2023-05-15T07:53:51;4.40;;;3.45;;
13171;SDS011;6651;53.200;10.432;2023-05-15T07:56:17;5.35;;;3.55;;
13171;SDS011;6651;53.200;10.432;2023-05-15T07:58:43;4.18;;;3.40;;
13171;SDS011;6651;53.200;10.432;2023-05-15T08:01:09;4.47;;;3.40;;
13171;SDS011;6651;53.200;10.432;2023-05-15T08:03:35;4.85;;;3.30;;
13171;SDS011;6651;53.200;10.432;2023-05-15T08:06:01;4.60;;;3.30;;
13171;SDS011;6651;53.200;10.432;2023-05-15T08:08:27;5.43;;;3.40;;
13171;SDS011;6651;53.200;10.432;2023-05-15T08:10:53;3.90;;;3.10;;
13171;SDS011;6651;53.200;10.432;2023-05-15T08:13:19;4.78;;;3.15;;
13171;SDS011;6651;53.200;10.432;2023-05-15T08:15:45;3.63;;;3.20;;
13171;SDS011;6651;53.200;10.432;2023-05-15T08:18:11;4.45;;;3.13;;
13171;SDS011;6651;53.200;10.432;2023-05-15T08:20:37;4.32;;;3.00;;
13171;SDS011;6651;53.200;10.432;2023-05-15T08:23:03;3.63;;;3.17;;
13171;SDS011;6651;53.200;10.432;2023-05-15T08:25:29;5.28;;;3.20;;
13171;SDS011;6651;53.200;10.432;2023-05-15T08:27:55;3.17;;;2.88;;
13171;SDS011;6651;53.200;10.432;2023-05-15T08:30:21;4.78;;;3.05;;
13171;SDS011;6651;53.200;10.432;2023-05-15T08:32:47;4.88;;;3.00;;
13171;SDS011;6651;53.200;10.432;2023-05-15T08:35:13;5.80;;;3.15;;
13171;SDS011;6651;53.200;10.432;2023-05-15T08:37:39;3.60;;;2.70;;
13171;SDS011;6651;53.200;10.432;2023-05-15T08:40:06;3.70;;;2.58;;
13171;SDS011;6651;53.200;10.432;2023-05-15T08:42:52;4.05;;;2.85;;
13171;SDS011;6651;53.200;10.432;2023-05-15T08:45:19;5.40;;;2.75;;
13171;SDS011;6651;53.200;10.432;2023-05-15T08:47:45;4.07;;;2.90;;
13171;SDS011;6651;53.200;10.432;2023-05-15T08:50:12;4.70;;;3.00;;
13171;SDS011;6651;53.200;10.432;2023-05-15T08:52:45;4.32;;;2.70;;
13171;SDS011;6651;53.200;10.432;2023-05-15T08:55:12;4.55;;;2.80;;
13171;SDS011;6651;53.200;10.432;2023-05-15T08:57:39;6.35;;;3.00;;
13171;SDS011;6651;53.200;10.432;2023-05-15T09:00:05;5.07;;;3.15;;
13171;SDS011;6651;53.200;10.432;2023-05-15T09:02:40;3.45;;;2.70;;
13171;SDS011;6651;53.200;10.432;2023-05-15T09:05:07;3.70;;;3.03;;
13171;SDS011;6651;53.200;10.432;2023-05-15T09:07:33;3.28;;;2.83;;
13171;SDS011;6651;53.200;10.432;2023-05-15T09:10:00;5.60;;;3.13;;
13171;SDS011;6651;53.200;10.432;2023-05-15T09:12:27;5.65;;;3.08;;
13171;SDS011;6651;53.200;10.432;2023-05-15T09:15:07;5.57;;;3.00;;
13171;SDS011;6651;53.200;10.432;2023-05-15T09:17:33;4.20;;;2.83;;
13171;SDS011;6651;53.200;10.432;2023-05-15T09:20:00;4.65;;;2.88;;
13171;SDS011;6651;53.200;10.432;2023-05-15T09:22:28;4.72;;;2.67;;
13171;SDS011;6651;53.200;10.432;2023-05-15T09:24:58;3.65;;;2.85;;
13171;SDS011;6651;53.200;10.432;2023-05-15T09:27:25;4.85;;;3.13;;
13171;SDS011;6651;53.200;10.432;2023-05-15T09:29:51;5.38;;;2.92;;
13171;SDS011;6651;53.200;10.432;2023-05-15T09:32:20;4.85;;;2.95;;
13171;SDS011;6651;53.200;10.432;2023-05-15T09:34:46;5.32;;;2.88;;
13171;SDS011;6651;53.200;10.432;2023-05-15T09:37:26;5.18;;;2.88;;
13171;SDS011;6651;53.200;10.432;2023-05-15T09:39:53;3.15;;;2.80;;
13171;SDS011;6651;53.200;10.432;2023-05-15T09:42:19;4.65;;;2.80;;
13171;SDS011;6651;53.200;10.432;2023-05-15T09:44:45;3.67;;;2.67;;
13171;SDS011;6651;53.200;10.432;2023-05-15T09:47:13;3.75;;;2.45;;
13171;SDS011;6651;53.200;10.432;2023-05-15T09:49:43;3.10;;;2.63;;
13171;SDS011;6651;53.200;10.432;2023-05-15T09:52:09;4.38;;;2.83;;
13171;SDS011;6651;53.200;10.432;2023-05-15T09:54:35;2.70;;;2.47;;
13171;SDS011;6651;53.200;10.432;2023-05-15T09:57:09;4.13;;;2.92;;
13171;SDS011;6651;53.200;10.432;2023-05-15T09:59:35;4.28;;;2.88;;
13171;SDS011;6651;53.200;10.432;2023-05-15T10:02:01;2.88;;;2.42;;
13171;SDS011;6651;53.200;10.432;2023-05-15T10:04:32;4.65;;;2.60;;
13171;SDS011;6651;53.200;10.432;2023-05-15T10:06:59;5.10;;;2.90;;
13171;SDS011;6651;53.200;10.432;2023-05-15T10:09:28;3.85;;;2.70;;
13171;SDS011;6651;53.200;10.432;2023-05-15T10:11:55;7.15;;;2.92;;
13171;SDS011;6651;53.200;10.432;2023-05-15T10:14:22;3.72;;;2.78;;
13171;SDS011;6651;53.200;10.432;2023-05-15T10:16:49;3.03;;;2.65;;
13171;SDS011;6651;53.200;10.432;2023-05-15T10:19:15;3.58;;;2.70;;
13171;SDS011;6651;53.200;10.432;2023-05-15T10:21:43;3.65;;;2.60;;
13171;SDS011;6651;53.200;10.432;2023-05-15T10:24:10;3.38;;;2.60;;
13171;SDS011;6651;53.200;10.432;2023-05-15T10:26:40;4.22;;;2.50;;
13171;SDS011;6651;53.200;10.432;2023-05-15T10:31:36;5.47;;;2.60;;
13171;SDS011;6651;53.200;10.432;2023-05-15T10:34:03;2.88;;;2.53;;
13171;SDS011;6651;53.200;10.432;2023-05-15T10:36:30;3.90;;;2.92;;
13171;SDS011;6651;53.200;10.432;2023-05-15T10:38:57;6.68;;;2.72;;
13171;SDS011;6651;53.200;10.432;2023-05-15T10:41:23;6.82;;;2.72;;
13171;SDS011;6651;53.200;10.432;2023-05-15T10:43:49;3.45;;;2.92;;
13171;SDS011;6651;53.200;10.432;2023-05-15T10:46:18;3.70;;;2.80;;
13171;SDS011;6651;53.200;10.432;2023-05-15T10:48:45;3.40;;;2.58;;
13171;SDS011;6651;53.200;10.432;2023-05-15T10:51:15;4.55;;;2.50;;
13171;SDS011;6651;53.200;10.432;2023-05-15T10:53:42;3.38;;;2.90;;
13171;SDS011;6651;53.200;10.432;2023-05-15T10:56:14;7.97;;;3.03;;
13171;SDS011;6651;53.200;10.432;2023-05-15T10:58:50;3.55;;;2.80;;
13171;SDS011;6651;53.200;10.432;2023-05-15T11:01:28;4.80;;;2.90;;
13171;SDS011;6651;53.200;10.432;2023-05-15T11:04:08;3.17;;;2.70;;
13171;SDS011;6651;53.200;10.432;2023-05-15T11:06:36;3.40;;;2.85;;
13171;SDS011;6651;53.200;10.432;2023-05-15T11:11:56;4.88;;;2.88;;
13171;SDS011;6651;53.200;10.432;2023-05-15T11:17:11;5.63;;;2.83;;
13171;SDS011;6651;53.200;10.432;2023-05-15T11:22:21;3.72;;;2.75;;
13171;SDS011;6651;53.200;10.432;2023-05-15T11:24:54;4.70;;;2.50;;
13171;SDS011;6651;53.200;10.432;2023-05-15T11:27:21;5.15;;;2.88;;
13171;SDS011;6651;53.200;10.432;2023-05-15T11:32:30;4.03;;;2.90;;
13171;SDS011;6651;53.200;10.432;2023-05-15T11:35:00;3.90;;;2.97;;
13171;SDS011;6651;53.200;10.432;2023-05-15T11:37:26;5.15;;;2.90;;
13171;SDS011;6651;53.200;10.432;2023-05-15T11:39:52;4.38;;;2.72;;
13171;SDS011;6651;53.200;10.432;2023-05-15T11:42:20;3.78;;;2.70;;
13171;SDS011;6651;53.200;10.432;2023-05-15T11:44:46;4.53;;;2.67;;
13171;SDS011;6651;53.200;10.432;2023-05-15T11:47:13;4.65;;;2.90;;
13171;SDS011;6651;53.200;10.432;2023-05-15T11:49:39;5.82;;;3.13;;
13171;SDS011;6651;53.200;10.432;2023-05-15T11:52:05;4.57;;;2.88;;
13171;SDS011;6651;53.200;10.432;2023-05-15T11:54:31;3.83;;;2.72;;
13171;SDS011;6651;53.200;10.432;2023-05-15T11:56:58;6.03;;;2.97;;
13171;SDS011;6651;53.200;10.432;2023-05-15T11:59:25;4.93;;;2.80;;
13171;SDS011;6651;53.200;10.432;2023-05-15T12:01:51;5.60;;;2.92;;
13171;SDS011;6651;53.200;10.432;2023-05-15T12:04:17;3.13;;;2.58;;
13171;SDS011;6651;53.200;10.432;2023-05-15T12:06:44;7.75;;;2.78;;
13171;SDS011;6651;53.200;10.432;2023-05-15T12:09:15;4.05;;;3.00;;
13171;SDS011;6651;53.200;10.432;2023-05-15T12:11:51;5.10;;;2.85;;
13171;SDS011;6651;53.200;10.432;2023-05-15T12:14:17;4.03;;;3.00;;
13171;SDS011;6651;53.200;10.432;2023-05-15T12:16:50;4.88;;;2.83;;
13171;SDS011;6651;53.200;10.432;2023-05-15T12:19:17;3.30;;;2.75;;
13171;SDS011;6651;53.200;10.432;2023-05-15T12:21:46;3.80;;;2.80;;
13171;SDS011;6651;53.200;10.432;2023-05-15T12:24:12;5.07;;;2.90;;
13171;SDS011;6651;53.200;10.432;2023-05-15T12:26:38;3.58;;;2.72;;
13171;SDS011;6651;53.200;10.432;2023-05-15T12:29:04;5.10;;;3.20;;
13171;SDS011;6651;53.200;10.432;2023-05-15T12:31:32;6.13;;;3.00;;
13171;SDS011;6651;53.200;10.432;2023-05-15T12:33:58;4.05;;;3.00;;
13171;SDS011;6651;53.200;10.432;2023-05-15T12:36:26;4.20;;;2.90;;
13171;SDS011;6651;53.200;10.432;2023-05-15T12:38:54;4.93;;;3.13;;
13171;SDS011;6651;53.200;10.432;2023-05-15T12:41:20;3.80;;;2.92;;
13171;SDS011;6651;53.200;10.432;2023-05-15T12:43:47;5.32;;;2.97;;
13171;SDS011;6651;53.200;10.432;2023-05-15T12:46:13;5.25;;;2.90;;
13171;SDS011;6651;53.200;10.432;2023-05-15T12:48:39;4.65;;;2.70;;
13171;SDS011;6651;53.200;10.432;2023-05-15T12:51:06;6.10;;;3.00;;
13171;SDS011;6651;53.200;10.432;2023-05-15T12:53:32;5.05;;;2.83;;
13171;SDS011;6651;53.200;10.432;2023-05-15T12:56:02;5.57;;;2.92;;
13171;SDS011;6651;53.200;10.432;2023-05-15T12:58:28;3.40;;;2.47;;
13171;SDS011;6651;53.200;10.432;2023-05-15T13:00:54;3.75;;;2.88;;
13171;SDS011;6651;53.200;10.432;2023-05-15T13:03:20;3.50;;;2.70;;
13171;SDS011;6651;53.200;10.432;2023-05-15T13:05:48;3.25;;;2.70;;
13171;SDS011;6651;53.200;10.432;2023-05-15T13:08:15;3.45;;;2.75;;
13171;SDS011;6651;53.200;10.432;2023-05-15T13:10:42;4.88;;;2.70;;
13171;SDS011;6651;53.200;10.432;2023-05-15T13:13:08;5.35;;;2.70;;
13171;SDS011;6651;53.200;10.432;2023-05-15T13:15:35;5.80;;;2.65;;
13171;SDS011;6651;53.200;10.432;2023-05-15T13:18:12;3.28;;;2.88;;
13171;SDS011;6651;53.200;10.432;2023-05-15T13:20:45;4.93;;;2.70;;
13171;SDS011;6651;53.200;10.432;2023-05-15T13:23:12;5.50;;;3.03;;
13171;SDS011;6651;53.200;10.432;2023-05-15T13:25:39;3.22;;;2.72;;
13171;SDS011;6651;53.200;10.432;2023-05-15T13:28:06;5.35;;;2.83;;
13171;SDS011;6651;53.200;10.432;2023-05-15T13:30:32;6.50;;;2.90;;
13171;SDS011;6651;53.200;10.432;2023-05-15T13:32:59;5.93;;;2.80;;
13171;SDS011;6651;53.200;10.432;2023-05-15T13:35:25;3.42;;;2.90;;
13171;SDS011;6651;53.200;10.432;2023-05-15T13:37:51;6.85;;;2.78;;
13171;SDS011;6651;53.200;10.432;2023-05-15T13:40:17;4.68;;;2.97;;
13171;SDS011;6651;53.200;10.432;2023-05-15T13:42:44;5.47;;;3.10;;
13171;SDS011;6651;53.200;10.432;2023-05-15T13:45:11;3.50;;;2.75;;
13171;SDS011;6651;53.200;10.432;2023-05-15T13:47:37;5.38;;;3.00;;
13171;SDS011;6651;53.200;10.432;2023-05-15T13:50:07;4.18;;;2.85;;
13171;SDS011;6651;53.200;10.432;2023-05-15T13:52:34;3.25;;;2.85;;
13171;SDS011;6651;53.200;10.432;2023-05-15T13:55:00;3.65;;;2.80;;
13171;SDS011;6651;53.200;10.432;2023-05-15T13:57:26;3.65;;;2.92;;
13171;SDS011;6651;53.200;10.432;2023-05-15T13:59:52;6.60;;;2.83;;
13171;SDS011;6651;53.200;10.432;2023-05-15T14:02:18;6.50;;;3.15;;
13171;SDS011;6651;53.200;10.432;2023-05-15T14:04:45;3.67;;;2.80;;
13171;SDS011;6651;53.200;10.432;2023-05-15T14:07:11;7.65;;;3.90;;
13171;SDS011;6651;53.200;10.432;2023-05-15T14:09:38;7.60;;;3.92;;
13171;SDS011;6651;53.200;10.432;2023-05-15T14:12:04;6.50;;;3.83;;
13171;SDS011;6651;53.200;10.432;2023-05-15T14:14:31;5.43;;;3.60;;
13171;SDS011;6651;53.200;10.432;2023-05-15T14:16:57;6.78;;;4.43;;
13171;SDS011;6651;53.200;10.432;2023-05-15T14:19:23;8.57;;;4.20;;
13171;SDS011;6651;53.200;10.432;2023-05-15T14:21:49;7.05;;;4.47;;
13171;SDS011;6651;53.200;10.432;2023-05-15T14:24:15;6.85;;;4.40;;
13171;SDS011;6651;53.200;10.432;2023-05-15T14:26:41;8.48;;;4.20;;
13171;SDS011;6651;53.200;10.432;2023-05-15T14:29:10;7.50;;;3.70;;
13171;SDS011;6651;53.200;10.432;2023-05-15T14:31:36;7.47;;;3.63;;
13171;SDS011;6651;53.200;10.432;2023-05-15T14:34:02;5.10;;;3.95;;
13171;SDS011;6651;53.200;10.432;2023-05-15T14:36:30;7.97;;;4.22;;
13171;SDS011;6651;53.200;10.432;2023-05-15T14:38:56;7.28;;;4.45;;
13171;SDS011;6651;53.200;10.432;2023-05-15T14:41:22;7.63;;;4.70;;
13171;SDS011;6651;53.200;10.432;2023-05-15T14:43:48;6.38;;;4.25;;
13171;SDS011;6651;53.200;10.432;2023-05-15T14:46:14;8.13;;;4.55;;
13171;SDS011;6651;53.200;10.432;2023-05-15T14:48:40;5.53;;;4.60;;
13171;SDS011;6651;53.200;10.432;2023-05-15T14:51:06;7.78;;;4.60;;
13171;SDS011;6651;53.200;10.432;2023-05-15T14:53:32;6.72;;;4.40;;
13171;SDS011;6651;53.200;10.432;2023-05-15T14:55:58;4.95;;;4.00;;
13171;SDS011;6651;53.200;10.432;2023-05-15T14:58:25;5.60;;;4.03;;
13171;SDS011;6651;53.200;10.432;2023-05-15T15:00:51;5.75;;;3.72;;
13171;SDS011;6651;53.200;10.432;2023-05-15T15:03:17;6.78;;;4.15;;
13171;SDS011;6651;53.200;10.432;2023-05-15T15:05:43;4.18;;;3.63;;
13171;SDS011;6651;53.200;10.432;2023-05-15T15:08:09;6.25;;;4.70;;
13171;SDS011;6651;53.200;10.432;2023-05-15T15:10:36;6.25;;;4.40;;
13171;SDS011;6651;53.200;10.432;2023-05-15T15:13:03;6.65;;;4.90;;
13171;SDS011;6651;53.200;10.432;2023-05-15T15:15:30;6.65;;;4.47;;